sensor_id;sensor_type;location;lat;lon;timestamp;P1;durP1;ratioP1;P2;durP2;ratioP2
5684;SDS011;2865;53.114;9.130;2023-07-30T00:02:14;3.77;;;3.47;;
5684;SDS011;2865;53.114;9.130;2023-07-30T00:04:39;3.80;;;3.30;;
5684;SDS011;2865;53.114;9.130;2023-07-30T00:07:05;3.67;;;3.37;;
5684;SDS011;2865;53.114;9.130;2023-07-30T00:09:30;4.67;;;4.27;;
5684;SDS011;2865;53.114;9.130;2023-07-30T00:11:56;4.10;;;3.20;;
5684;SDS011;2865;53.114;9.130;2023-07-30T00:14:22;5.40;;;3.50;;
5684;SDS011;2865;53.114;9.130;2023-07-30T00:16:47;6.33;;;3.30;;
5684;SDS011;2865;53.114;9.130;2023-07-30T00:19:13;3.20;;;3.00;;
5684;SDS011;2865;53.114;9.130;2023-07-30T00:21:38;5.87;;;4.00;;
5684;SDS011;2865;53.114;9.130;2023-07-30T00:24:04;5.63;;;3.70;;
5684;SDS011;2865;53.114;9.130;2023-07-30T00:26:29;4.83;;;3.80;;
5684;SDS011;2865;53.114;9.130;2023-07-30T00:28:54;4.17;;;3.40;;
5684;SDS011;2865;53.114;9.130;2023-07-30T00:31:20;5.03;;;3.30;;
5684;SDS011;2865;53.114;9.130;2023-07-30T00:33:45;3.27;;;3.00;;
5684;SDS011;2865;53.114;9.130;2023-07-30T00:36:11;4.70;;;3.50;;
5684;SDS011;2865;53.114;9.130;2023-07-30T00:38:36;4.23;;;3.20;;
5684;SDS011;2865;53.114;9.130;2023-07-30T00:41:01;5.33;;;3.53;;
5684;SDS011;2865;53.114;9.130;2023-07-30T00:43:27;6.10;;;3.40;;
5684;SDS011;2865;53.114;9.130;2023-07-30T00:45:52;5.30;;;3.77;;
5684;SDS011;2865;53.114;9.130;2023-07-30T00:48:17;9.60;;;3.33;;
5684;SDS011;2865;53.114;9.130;2023-07-30T00:50:43;4.20;;;3.80;;
5684;SDS011;2865;53.114;9.130;2023-07-30T00:53:09;3.40;;;3.20;;
5684;SDS011;2865;53.114;9.130;2023-07-30T00:55:34;3.93;;;2.93;;
5684;SDS011;2865;53.114;9.130;2023-07-30T00:57:59;4.10;;;3.70;;
5684;SDS011;2865;53.114;9.130;2023-07-30T01:00:25;5.30;;;3.90;;
5684;SDS011;2865;53.114;9.130;2023-07-30T01:02:51;3.70;;;3.40;;
5684;SDS011;2865;53.114;9.130;2023-07-30T01:05:15;3.80;;;3.50;;
5684;SDS011;2865;53.114;9.130;2023-07-30T01:07:41;5.90;;;3.80;;
5684;SDS011;2865;53.114;9.130;2023-07-30T01:10:06;5.67;;;3.23;;
5684;SDS011;2865;53.114;9.130;2023-07-30T01:12:32;4.60;;;3.40;;
5684;SDS011;2865;53.114;9.130;2023-07-30T01:14:58;4.43;;;3.50;;
5684;SDS011;2865;53.114;9.130;2023-07-30T01:17:23;3.77;;;3.27;;
5684;SDS011;2865;53.114;9.130;2023-07-30T01:19:49;4.80;;;3.50;;
5684;SDS011;2865;53.114;9.130;2023-07-30T01:22:15;5.03;;;3.63;;
5684;SDS011;2865;53.114;9.130;2023-07-30T01:24:40;4.43;;;3.70;;
5684;SDS011;2865;53.114;9.130;2023-07-30T01:27:06;5.43;;;3.40;;
5684;SDS011;2865;53.114;9.130;2023-07-30T01:29:33;6.40;;;3.17;;
5684;SDS011;2865;53.114;9.130;2023-07-30T01:32:14;6.10;;;3.40;;
5684;SDS011;2865;53.114;9.130;2023-07-30T01:34:40;9.60;;;3.67;;
5684;SDS011;2865;53.114;9.130;2023-07-30T01:37:05;3.83;;;3.40;;
5684;SDS011;2865;53.114;9.130;2023-07-30T01:39:30;3.40;;;3.10;;
5684;SDS011;2865;53.114;9.130;2023-07-30T01:41:56;13.20;;;3.50;;
5684;SDS011;2865;53.114;9.130;2023-07-30T01:44:21;4.83;;;3.40;;
5684;SDS011;2865;53.114;9.130;2023-07-30T01:46:47;11.93;;;3.33;;
5684;SDS011;2865;53.114;9.130;2023-07-30T01:49:12;5.00;;;4.50;;
5684;SDS011;2865;53.114;9.130;2023-07-30T01:51:38;7.93;;;3.90;;
5684;SDS011;2865;53.114;9.130;2023-07-30T01:54:03;5.17;;;3.50;;
5684;SDS011;2865;53.114;9.130;2023-07-30T01:56:28;4.00;;;3.67;;
5684;SDS011;2865;53.114;9.130;2023-07-30T01:58:54;4.60;;;3.67;;
5684;SDS011;2865;53.114;9.130;2023-07-30T02:01:19;4.33;;;3.13;;
5684;SDS011;2865;53.114;9.130;2023-07-30T02:03:45;8.40;;;3.80;;
5684;SDS011;2865;53.114;9.130;2023-07-30T02:06:10;5.60;;;3.50;;
5684;SDS011;2865;53.114;9.130;2023-07-30T02:08:35;3.43;;;3.13;;
5684;SDS011;2865;53.114;9.130;2023-07-30T02:11:01;3.90;;;2.90;;
5684;SDS011;2865;53.114;9.130;2023-07-30T02:13:26;7.17;;;4.03;;
5684;SDS011;2865;53.114;9.130;2023-07-30T02:15:52;6.50;;;3.57;;
5684;SDS011;2865;53.114;9.130;2023-07-30T02:18:17;7.20;;;3.20;;
5684;SDS011;2865;53.114;9.130;2023-07-30T02:20:42;4.20;;;3.80;;
5684;SDS011;2865;53.114;9.130;2023-07-30T02:23:08;5.83;;;3.50;;
5684;SDS011;2865;53.114;9.130;2023-07-30T02:25:33;6.80;;;4.60;;
5684;SDS011;2865;53.114;9.130;2023-07-30T02:27:59;4.70;;;3.50;;
5684;SDS011;2865;53.114;9.130;2023-07-30T02:30:24;4.50;;;3.50;;
5684;SDS011;2865;53.114;9.130;2023-07-30T02:32:49;3.27;;;2.97;;
5684;SDS011;2865;53.114;9.130;2023-07-30T02:35:14;5.20;;;4.03;;
5684;SDS011;2865;53.114;9.130;2023-07-30T02:37:40;4.13;;;3.27;;
5684;SDS011;2865;53.114;9.130;2023-07-30T02:40:05;6.13;;;3.83;;
5684;SDS011;2865;53.114;9.130;2023-07-30T02:42:31;4.53;;;3.50;;
5684;SDS011;2865;53.114;9.130;2023-07-30T02:44:57;4.30;;;4.00;;
5684;SDS011;2865;53.114;9.130;2023-07-30T02:47:22;4.00;;;3.60;;
5684;SDS011;2865;53.114;9.130;2023-07-30T02:49:47;7.90;;;3.30;;
5684;SDS011;2865;53.114;9.130;2023-07-30T02:52:13;4.87;;;3.40;;
5684;SDS011;2865;53.114;9.130;2023-07-30T02:54:38;5.00;;;3.60;;
5684;SDS011;2865;53.114;9.130;2023-07-30T02:57:04;7.20;;;3.40;;
5684;SDS011;2865;53.114;9.130;2023-07-30T02:59:30;5.03;;;3.90;;
5684;SDS011;2865;53.114;9.130;2023-07-30T03:01:56;5.00;;;3.80;;
5684;SDS011;2865;53.114;9.130;2023-07-30T03:04:21;4.63;;;3.77;;
5684;SDS011;2865;53.114;9.130;2023-07-30T03:06:47;7.13;;;3.43;;
5684;SDS011;2865;53.114;9.130;2023-07-30T03:09:12;5.87;;;3.90;;
5684;SDS011;2865;53.114;9.130;2023-07-30T03:11:38;5.10;;;3.60;;
5684;SDS011;2865;53.114;9.130;2023-07-30T03:14:03;4.40;;;3.50;;
5684;SDS011;2865;53.114;9.130;2023-07-30T03:16:28;4.43;;;3.90;;
5684;SDS011;2865;53.114;9.130;2023-07-30T03:18:54;3.53;;;3.23;;
5684;SDS011;2865;53.114;9.130;2023-07-30T03:21:19;10.00;;;4.03;;
5684;SDS011;2865;53.114;9.130;2023-07-30T03:23:44;4.37;;;3.97;;
5684;SDS011;2865;53.114;9.130;2023-07-30T03:26:10;10.03;;;3.37;;
5684;SDS011;2865;53.114;9.130;2023-07-30T03:28:35;4.20;;;3.80;;
5684;SDS011;2865;53.114;9.130;2023-07-30T03:31:01;9.47;;;3.50;;
5684;SDS011;2865;53.114;9.130;2023-07-30T03:33:26;5.03;;;3.80;;
5684;SDS011;2865;53.114;9.130;2023-07-30T03:35:51;3.20;;;2.90;;
5684;SDS011;2865;53.114;9.130;2023-07-30T03:38:17;7.43;;;4.10;;
5684;SDS011;2865;53.114;9.130;2023-07-30T03:40:42;9.10;;;4.53;;
5684;SDS011;2865;53.114;9.130;2023-07-30T03:43:07;6.23;;;4.50;;
5684;SDS011;2865;53.114;9.130;2023-07-30T03:45:33;5.20;;;4.20;;
5684;SDS011;2865;53.114;9.130;2023-07-30T03:47:58;10.13;;;3.83;;
5684;SDS011;2865;53.114;9.130;2023-07-30T03:50:24;5.67;;;4.57;;
5684;SDS011;2865;53.114;9.130;2023-07-30T03:52:49;5.10;;;4.40;;
5684;SDS011;2865;53.114;9.130;2023-07-30T03:55:15;4.93;;;4.27;;
5684;SDS011;2865;53.114;9.130;2023-07-30T03:57:41;9.13;;;4.53;;
5684;SDS011;2865;53.114;9.130;2023-07-30T04:00:07;5.30;;;4.80;;
5684;SDS011;2865;53.114;9.130;2023-07-30T04:02:32;8.80;;;4.20;;
5684;SDS011;2865;53.114;9.130;2023-07-30T04:04:58;7.63;;;5.23;;
5684;SDS011;2865;53.114;9.130;2023-07-30T04:07:24;7.33;;;3.90;;
5684;SDS011;2865;53.114;9.130;2023-07-30T04:09:49;7.50;;;4.50;;
5684;SDS011;2865;53.114;9.130;2023-07-30T04:12:14;15.83;;;5.40;;
5684;SDS011;2865;53.114;9.130;2023-07-30T04:14:40;13.07;;;5.00;;
5684;SDS011;2865;53.114;9.130;2023-07-30T04:17:05;5.00;;;4.20;;
5684;SDS011;2865;53.114;9.130;2023-07-30T04:19:30;8.70;;;4.90;;
5684;SDS011;2865;53.114;9.130;2023-07-30T04:21:56;10.67;;;4.30;;
5684;SDS011;2865;53.114;9.130;2023-07-30T04:24:21;6.93;;;4.27;;
5684;SDS011;2865;53.114;9.130;2023-07-30T04:26:46;7.17;;;4.90;;
5684;SDS011;2865;53.114;9.130;2023-07-30T04:29:12;6.53;;;4.53;;
5684;SDS011;2865;53.114;9.130;2023-07-30T04:31:38;17.53;;;4.90;;
5684;SDS011;2865;53.114;9.130;2023-07-30T04:34:03;10.60;;;4.50;;
5684;SDS011;2865;53.114;9.130;2023-07-30T04:36:28;17.43;;;4.87;;
5684;SDS011;2865;53.114;9.130;2023-07-30T04:38:54;6.67;;;4.47;;
5684;SDS011;2865;53.114;9.130;2023-07-30T04:41:19;8.93;;;3.93;;
5684;SDS011;2865;53.114;9.130;2023-07-30T04:43:44;6.23;;;4.00;;
5684;SDS011;2865;53.114;9.130;2023-07-30T04:46:10;9.60;;;4.70;;
5684;SDS011;2865;53.114;9.130;2023-07-30T04:48:36;9.53;;;4.43;;
5684;SDS011;2865;53.114;9.130;2023-07-30T04:51:00;7.90;;;4.13;;
5684;SDS011;2865;53.114;9.130;2023-07-30T04:53:26;11.30;;;4.50;;
5684;SDS011;2865;53.114;9.130;2023-07-30T04:55:55;7.70;;;3.50;;
5684;SDS011;2865;53.114;9.130;2023-07-30T04:58:21;13.17;;;4.50;;
5684;SDS011;2865;53.114;9.130;2023-07-30T05:00:46;10.43;;;4.03;;
5684;SDS011;2865;53.114;9.130;2023-07-30T05:03:12;8.83;;;3.77;;
5684;SDS011;2865;53.114;9.130;2023-07-30T05:05:38;7.20;;;3.50;;
5684;SDS011;2865;53.114;9.130;2023-07-30T05:08:03;11.87;;;3.80;;
5684;SDS011;2865;53.114;9.130;2023-07-30T05:10:29;10.20;;;3.40;;
5684;SDS011;2865;53.114;9.130;2023-07-30T05:12:54;7.57;;;4.53;;
5684;SDS011;2865;53.114;9.130;2023-07-30T05:15:19;15.60;;;4.87;;
5684;SDS011;2865;53.114;9.130;2023-07-30T05:17:45;12.60;;;3.90;;
5684;SDS011;2865;53.114;9.130;2023-07-30T05:20:11;11.43;;;3.37;;
5684;SDS011;2865;53.114;9.130;2023-07-30T05:22:36;7.50;;;3.50;;
5684;SDS011;2865;53.114;9.130;2023-07-30T05:25:02;8.40;;;3.80;;
5684;SDS011;2865;53.114;9.130;2023-07-30T05:27:28;10.57;;;3.87;;
5684;SDS011;2865;53.114;9.130;2023-07-30T05:29:54;10.90;;;3.93;;
5684;SDS011;2865;53.114;9.130;2023-07-30T05:32:19;12.00;;;3.60;;
5684;SDS011;2865;53.114;9.130;2023-07-30T05:34:44;10.47;;;3.60;;
5684;SDS011;2865;53.114;9.130;2023-07-30T05:37:10;7.70;;;3.40;;
5684;SDS011;2865;53.114;9.130;2023-07-30T05:39:35;5.17;;;3.20;;
5684;SDS011;2865;53.114;9.130;2023-07-30T05:42:01;7.30;;;3.00;;
5684;SDS011;2865;53.114;9.130;2023-07-30T05:44:26;5.13;;;2.83;;
5684;SDS011;2865;53.114;9.130;2023-07-30T05:46:51;8.07;;;3.50;;
5684;SDS011;2865;53.114;9.130;2023-07-30T05:49:17;9.30;;;3.30;;
5684;SDS011;2865;53.114;9.130;2023-07-30T05:51:42;19.27;;;3.53;;
5684;SDS011;2865;53.114;9.130;2023-07-30T05:54:07;7.77;;;3.10;;
5684;SDS011;2865;53.114;9.130;2023-07-30T05:56:33;13.50;;;3.70;;
5684;SDS011;2865;53.114;9.130;2023-07-30T05:58:58;10.97;;;3.70;;
5684;SDS011;2865;53.114;9.130;2023-07-30T06:01:24;10.57;;;3.10;;
5684;SDS011;2865;53.114;9.130;2023-07-30T06:03:49;11.10;;;3.70;;
5684;SDS011;2865;53.114;9.130;2023-07-30T06:06:14;6.93;;;3.30;;
5684;SDS011;2865;53.114;9.130;2023-07-30T06:08:40;7.60;;;3.90;;
5684;SDS011;2865;53.114;9.130;2023-07-30T06:11:05;7.30;;;3.53;;
5684;SDS011;2865;53.114;9.130;2023-07-30T06:13:30;10.17;;;3.70;;
5684;SDS011;2865;53.114;9.130;2023-07-30T06:15:56;14.63;;;3.63;;
5684;SDS011;2865;53.114;9.130;2023-07-30T06:18:22;7.90;;;3.80;;
5684;SDS011;2865;53.114;9.130;2023-07-30T06:20:47;14.80;;;4.27;;
5684;SDS011;2865;53.114;9.130;2023-07-30T06:23:12;8.57;;;3.70;;
5684;SDS011;2865;53.114;9.130;2023-07-30T06:25:38;10.90;;;3.97;;
5684;SDS011;2865;53.114;9.130;2023-07-30T06:28:05;9.33;;;3.23;;
5684;SDS011;2865;53.114;9.130;2023-07-30T06:30:30;11.73;;;3.70;;
5684;SDS011;2865;53.114;9.130;2023-07-30T06:32:55;13.90;;;3.90;;
5684;SDS011;2865;53.114;9.130;2023-07-30T06:35:21;10.60;;;3.50;;
5684;SDS011;2865;53.114;9.130;2023-07-30T06:37:46;10.03;;;4.83;;
5684;SDS011;2865;53.114;9.130;2023-07-30T06:40:11;8.20;;;3.60;;
5684;SDS011;2865;53.114;9.130;2023-07-30T06:42:37;11.30;;;3.80;;
5684;SDS011;2865;53.114;9.130;2023-07-30T06:45:03;16.30;;;4.13;;
5684;SDS011;2865;53.114;9.130;2023-07-30T06:47:29;8.90;;;3.80;;
5684;SDS011;2865;53.114;9.130;2023-07-30T06:49:54;10.50;;;4.40;;
5684;SDS011;2865;53.114;9.130;2023-07-30T06:52:20;10.17;;;3.43;;
5684;SDS011;2865;53.114;9.130;2023-07-30T06:54:45;9.03;;;3.33;;
5684;SDS011;2865;53.114;9.130;2023-07-30T06:57:11;20.87;;;4.70;;
5684;SDS011;2865;53.114;9.130;2023-07-30T06:59:37;7.70;;;3.73;;
5684;SDS011;2865;53.114;9.130;2023-07-30T07:02:03;12.77;;;4.97;;
5684;SDS011;2865;53.114;9.130;2023-07-30T07:04:30;13.80;;;4.47;;
5684;SDS011;2865;53.114;9.130;2023-07-30T07:06:56;8.37;;;4.30;;
5684;SDS011;2865;53.114;9.130;2023-07-30T07:09:21;12.63;;;3.90;;
5684;SDS011;2865;53.114;9.130;2023-07-30T07:11:46;9.83;;;4.13;;
5684;SDS011;2865;53.114;9.130;2023-07-30T07:14:12;9.37;;;3.30;;
5684;SDS011;2865;53.114;9.130;2023-07-30T07:16:37;6.00;;;3.60;;
5684;SDS011;2865;53.114;9.130;2023-07-30T07:19:02;8.63;;;3.87;;
5684;SDS011;2865;53.114;9.130;2023-07-30T07:21:28;13.53;;;5.40;;
5684;SDS011;2865;53.114;9.130;2023-07-30T07:23:53;11.33;;;4.07;;
5684;SDS011;2865;53.114;9.130;2023-07-30T07:26:18;8.10;;;4.20;;
5684;SDS011;2865;53.114;9.130;2023-07-30T07:28:44;11.03;;;3.43;;
5684;SDS011;2865;53.114;9.130;2023-07-30T07:31:09;10.03;;;4.33;;
5684;SDS011;2865;53.114;9.130;2023-07-30T07:33:35;7.77;;;4.20;;
5684;SDS011;2865;53.114;9.130;2023-07-30T07:36:03;17.53;;;4.80;;
5684;SDS011;2865;53.114;9.130;2023-07-30T07:38:30;8.93;;;3.23;;
5684;SDS011;2865;53.114;9.130;2023-07-30T07:40:55;10.33;;;4.13;;
5684;SDS011;2865;53.114;9.130;2023-07-30T07:43:21;15.67;;;4.10;;
5684;SDS011;2865;53.114;9.130;2023-07-30T07:45:46;8.47;;;3.90;;
5684;SDS011;2865;53.114;9.130;2023-07-30T07:48:11;11.13;;;4.70;;
5684;SDS011;2865;53.114;9.130;2023-07-30T07:50:37;16.20;;;5.20;;
5684;SDS011;2865;53.114;9.130;2023-07-30T07:53:03;7.47;;;4.20;;
5684;SDS011;2865;53.114;9.130;2023-07-30T07:55:29;13.60;;;4.00;;
5684;SDS011;2865;53.114;9.130;2023-07-30T07:57:54;9.70;;;4.03;;
5684;SDS011;2865;53.114;9.130;2023-07-30T08:00:20;10.40;;;4.23;;
5684;SDS011;2865;53.114;9.130;2023-07-30T08:02:45;12.37;;;5.20;;
5684;SDS011;2865;53.114;9.130;2023-07-30T08:05:11;13.10;;;4.07;;
5684;SDS011;2865;53.114;9.130;2023-07-30T08:07:36;13.73;;;4.83;;
5684;SDS011;2865;53.114;9.130;2023-07-30T08:10:02;15.27;;;5.17;;
5684;SDS011;2865;53.114;9.130;2023-07-30T08:12:27;17.90;;;4.30;;
5684;SDS011;2865;53.114;9.130;2023-07-30T08:14:53;7.70;;;4.57;;
5684;SDS011;2865;53.114;9.130;2023-07-30T08:17:18;7.03;;;3.53;;
5684;SDS011;2865;53.114;9.130;2023-07-30T08:19:45;9.83;;;3.70;;
5684;SDS011;2865;53.114;9.130;2023-07-30T08:22:11;7.80;;;3.50;;
5684;SDS011;2865;53.114;9.130;2023-07-30T08:24:36;15.10;;;3.47;;
5684;SDS011;2865;53.114;9.130;2023-07-30T08:27:02;13.90;;;3.70;;
5684;SDS011;2865;53.114;9.130;2023-07-30T08:29:28;14.17;;;4.47;;
5684;SDS011;2865;53.114;9.130;2023-07-30T08:31:53;10.40;;;3.60;;
5684;SDS011;2865;53.114;9.130;2023-07-30T08:34:21;16.73;;;3.57;;
5684;SDS011;2865;53.114;9.130;2023-07-30T08:36:44;9.40;;;3.57;;
5684;SDS011;2865;53.114;9.130;2023-07-30T08:39:10;12.20;;;5.13;;
5684;SDS011;2865;53.114;9.130;2023-07-30T08:41:36;11.07;;;2.93;;
5684;SDS011;2865;53.114;9.130;2023-07-30T08:44:01;17.13;;;3.23;;
5684;SDS011;2865;53.114;9.130;2023-07-30T08:46:27;9.90;;;3.50;;
5684;SDS011;2865;53.114;9.130;2023-07-30T08:48:52;14.03;;;3.93;;
5684;SDS011;2865;53.114;9.130;2023-07-30T08:51:17;15.47;;;3.30;;
5684;SDS011;2865;53.114;9.130;2023-07-30T08:53:43;9.90;;;3.20;;
5684;SDS011;2865;53.114;9.130;2023-07-30T08:56:09;7.73;;;3.40;;
5684;SDS011;2865;53.114;9.130;2023-07-30T08:58:33;12.10;;;3.20;;
5684;SDS011;2865;53.114;9.130;2023-07-30T09:00:59;18.50;;;3.97;;
5684;SDS011;2865;53.114;9.130;2023-07-30T09:03:24;9.87;;;3.27;;
5684;SDS011;2865;53.114;9.130;2023-07-30T09:05:50;8.90;;;2.90;;
5684;SDS011;2865;53.114;9.130;2023-07-30T09:08:15;9.27;;;3.57;;
5684;SDS011;2865;53.114;9.130;2023-07-30T09:10:40;6.70;;;3.43;;
5684;SDS011;2865;53.114;9.130;2023-07-30T09:13:06;7.83;;;2.57;;
5684;SDS011;2865;53.114;9.130;2023-07-30T09:15:34;8.33;;;3.63;;
5684;SDS011;2865;53.114;9.130;2023-07-30T09:17:58;7.27;;;2.87;;
5684;SDS011;2865;53.114;9.130;2023-07-30T09:20:23;6.20;;;3.00;;
5684;SDS011;2865;53.114;9.130;2023-07-30T09:22:48;8.63;;;2.70;;
5684;SDS011;2865;53.114;9.130;2023-07-30T09:25:14;11.60;;;3.57;;
5684;SDS011;2865;53.114;9.130;2023-07-30T09:27:39;12.00;;;3.57;;
5684;SDS011;2865;53.114;9.130;2023-07-30T09:30:05;8.33;;;3.37;;
5684;SDS011;2865;53.114;9.130;2023-07-30T09:32:32;7.67;;;3.90;;
5684;SDS011;2865;53.114;9.130;2023-07-30T09:35:04;7.40;;;4.90;;
5684;SDS011;2865;53.114;9.130;2023-07-30T09:37:30;17.23;;;2.67;;
5684;SDS011;2865;53.114;9.130;2023-07-30T09:39:57;6.67;;;3.20;;
5684;SDS011;2865;53.114;9.130;2023-07-30T09:42:22;9.70;;;3.30;;
5684;SDS011;2865;53.114;9.130;2023-07-30T09:44:46;14.43;;;3.57;;
5684;SDS011;2865;53.114;9.130;2023-07-30T09:47:12;9.33;;;3.30;;
5684;SDS011;2865;53.114;9.130;2023-07-30T09:49:37;8.60;;;3.10;;
5684;SDS011;2865;53.114;9.130;2023-07-30T09:52:03;8.40;;;3.37;;
5684;SDS011;2865;53.114;9.130;2023-07-30T09:54:29;8.57;;;2.80;;
5684;SDS011;2865;53.114;9.130;2023-07-30T09:56:54;6.67;;;3.50;;
5684;SDS011;2865;53.114;9.130;2023-07-30T09:59:21;13.17;;;3.60;;
5684;SDS011;2865;53.114;9.130;2023-07-30T10:01:47;9.10;;;3.17;;
5684;SDS011;2865;53.114;9.130;2023-07-30T10:04:13;9.97;;;3.23;;
5684;SDS011;2865;53.114;9.130;2023-07-30T10:06:41;16.03;;;3.73;;
5684;SDS011;2865;53.114;9.130;2023-07-30T10:09:05;11.33;;;4.13;;
5684;SDS011;2865;53.114;9.130;2023-07-30T10:11:30;11.20;;;4.70;;
5684;SDS011;2865;53.114;9.130;2023-07-30T10:13:56;12.13;;;3.87;;
5684;SDS011;2865;53.114;9.130;2023-07-30T10:16:25;13.57;;;3.57;;
5684;SDS011;2865;53.114;9.130;2023-07-30T10:18:53;19.83;;;4.40;;
5684;SDS011;2865;53.114;9.130;2023-07-30T10:21:21;13.80;;;4.30;;
5684;SDS011;2865;53.114;9.130;2023-07-30T10:23:46;17.03;;;4.87;;
5684;SDS011;2865;53.114;9.130;2023-07-30T10:26:11;11.17;;;4.80;;
5684;SDS011;2865;53.114;9.130;2023-07-30T10:28:36;10.33;;;4.23;;
5684;SDS011;2865;53.114;9.130;2023-07-30T10:31:04;7.23;;;3.90;;
5684;SDS011;2865;53.114;9.130;2023-07-30T10:36:05;14.30;;;4.30;;
5684;SDS011;2865;53.114;9.130;2023-07-30T10:38:30;8.90;;;4.27;;
5684;SDS011;2865;53.114;9.130;2023-07-30T10:40:59;9.20;;;4.77;;
5684;SDS011;2865;53.114;9.130;2023-07-30T10:43:26;6.03;;;3.30;;
5684;SDS011;2865;53.114;9.130;2023-07-30T10:45:49;13.30;;;3.73;;
5684;SDS011;2865;53.114;9.130;2023-07-30T10:48:15;12.33;;;4.97;;
5684;SDS011;2865;53.114;9.130;2023-07-30T10:50:40;9.30;;;4.20;;
5684;SDS011;2865;53.114;9.130;2023-07-30T10:53:07;23.37;;;4.30;;
5684;SDS011;2865;53.114;9.130;2023-07-30T10:55:31;10.60;;;4.00;;
5684;SDS011;2865;53.114;9.130;2023-07-30T10:57:57;19.40;;;5.37;;
5684;SDS011;2865;53.114;9.130;2023-07-30T11:00:23;12.87;;;4.30;;
5684;SDS011;2865;53.114;9.130;2023-07-30T11:02:53;13.97;;;4.43;;
5684;SDS011;2865;53.114;9.130;2023-07-30T11:05:18;9.17;;;3.90;;
5684;SDS011;2865;53.114;9.130;2023-07-30T11:07:49;10.27;;;3.20;;
5684;SDS011;2865;53.114;9.130;2023-07-30T11:10:13;9.77;;;3.63;;
5684;SDS011;2865;53.114;9.130;2023-07-30T11:12:39;6.10;;;3.40;;
5684;SDS011;2865;53.114;9.130;2023-07-30T11:15:05;9.60;;;3.27;;
5684;SDS011;2865;53.114;9.130;2023-07-30T11:17:31;9.00;;;3.50;;
5684;SDS011;2865;53.114;9.130;2023-07-30T11:19:56;9.67;;;4.43;;
5684;SDS011;2865;53.114;9.130;2023-07-30T11:22:29;7.07;;;3.47;;
5684;SDS011;2865;53.114;9.130;2023-07-30T11:24:56;17.17;;;3.77;;
5684;SDS011;2865;53.114;9.130;2023-07-30T11:27:21;8.33;;;3.97;;
5684;SDS011;2865;53.114;9.130;2023-07-30T11:32:18;7.20;;;2.73;;
5684;SDS011;2865;53.114;9.130;2023-07-30T11:34:46;9.40;;;3.30;;
5684;SDS011;2865;53.114;9.130;2023-07-30T11:37:11;8.73;;;4.23;;
5684;SDS011;2865;53.114;9.130;2023-07-30T11:39:37;6.97;;;2.87;;
5684;SDS011;2865;53.114;9.130;2023-07-30T11:42:02;14.27;;;3.33;;
5684;SDS011;2865;53.114;9.130;2023-07-30T11:44:29;6.47;;;2.47;;
5684;SDS011;2865;53.114;9.130;2023-07-30T11:46:56;9.43;;;3.33;;
5684;SDS011;2865;53.114;9.130;2023-07-30T11:49:22;3.47;;;2.00;;
5684;SDS011;2865;53.114;9.130;2023-07-30T11:51:48;7.60;;;2.87;;
5684;SDS011;2865;53.114;9.130;2023-07-30T11:54:18;8.70;;;3.23;;
5684;SDS011;2865;53.114;9.130;2023-07-30T11:56:43;10.33;;;3.03;;
5684;SDS011;2865;53.114;9.130;2023-07-30T11:59:08;8.77;;;2.63;;
5684;SDS011;2865;53.114;9.130;2023-07-30T12:01:34;7.77;;;2.80;;
5684;SDS011;2865;53.114;9.130;2023-07-30T12:03:59;5.40;;;3.20;;
5684;SDS011;2865;53.114;9.130;2023-07-30T12:09:17;10.33;;;3.70;;
5684;SDS011;2865;53.114;9.130;2023-07-30T12:11:44;11.70;;;4.00;;
5684;SDS011;2865;53.114;9.130;2023-07-30T12:14:09;14.87;;;4.00;;
5684;SDS011;2865;53.114;9.130;2023-07-30T12:16:35;9.10;;;2.97;;
5684;SDS011;2865;53.114;9.130;2023-07-30T12:19:00;13.03;;;2.93;;
5684;SDS011;2865;53.114;9.130;2023-07-30T12:21:26;7.00;;;3.57;;
5684;SDS011;2865;53.114;9.130;2023-07-30T12:23:51;13.87;;;4.63;;
5684;SDS011;2865;53.114;9.130;2023-07-30T12:26:16;5.93;;;3.63;;
5684;SDS011;2865;53.114;9.130;2023-07-30T12:28:42;12.10;;;3.13;;
5684;SDS011;2865;53.114;9.130;2023-07-30T12:31:07;5.23;;;2.87;;
5684;SDS011;2865;53.114;9.130;2023-07-30T12:33:32;3.43;;;2.53;;
5684;SDS011;2865;53.114;9.130;2023-07-30T12:35:58;3.27;;;1.83;;
5684;SDS011;2865;53.114;9.130;2023-07-30T12:38:23;4.40;;;2.80;;
5684;SDS011;2865;53.114;9.130;2023-07-30T12:40:50;2.20;;;1.80;;
5684;SDS011;2865;53.114;9.130;2023-07-30T12:43:16;2.50;;;1.70;;
5684;SDS011;2865;53.114;9.130;2023-07-30T12:45:40;2.90;;;1.97;;
5684;SDS011;2865;53.114;9.130;2023-07-30T12:48:06;4.20;;;2.30;;
5684;SDS011;2865;53.114;9.130;2023-07-30T12:50:32;3.47;;;1.77;;
5684;SDS011;2865;53.114;9.130;2023-07-30T12:52:58;7.03;;;1.67;;
5684;SDS011;2865;53.114;9.130;2023-07-30T12:55:23;3.03;;;2.20;;
5684;SDS011;2865;53.114;9.130;2023-07-30T12:57:48;2.30;;;1.90;;
5684;SDS011;2865;53.114;9.130;2023-07-30T13:00:14;2.10;;;1.80;;
5684;SDS011;2865;53.114;9.130;2023-07-30T13:02:39;4.20;;;2.63;;
5684;SDS011;2865;53.114;9.130;2023-07-30T13:05:05;8.40;;;1.80;;
5684;SDS011;2865;53.114;9.130;2023-07-30T13:07:31;6.13;;;2.30;;
5684;SDS011;2865;53.114;9.130;2023-07-30T13:12:29;4.83;;;2.83;;
5684;SDS011;2865;53.114;9.130;2023-07-30T13:14:55;4.17;;;2.20;;
5684;SDS011;2865;53.114;9.130;2023-07-30T13:17:21;4.33;;;2.53;;
5684;SDS011;2865;53.114;9.130;2023-07-30T13:19:47;6.00;;;2.40;;
5684;SDS011;2865;53.114;9.130;2023-07-30T13:22:13;3.27;;;2.60;;
5684;SDS011;2865;53.114;9.130;2023-07-30T13:24:38;6.47;;;2.70;;
5684;SDS011;2865;53.114;9.130;2023-07-30T13:27:03;3.27;;;2.33;;
5684;SDS011;2865;53.114;9.130;2023-07-30T13:29:29;7.97;;;2.27;;
5684;SDS011;2865;53.114;9.130;2023-07-30T13:31:54;2.90;;;2.13;;
5684;SDS011;2865;53.114;9.130;2023-07-30T13:34:20;9.10;;;2.17;;
5684;SDS011;2865;53.114;9.130;2023-07-30T13:36:45;3.53;;;2.13;;
5684;SDS011;2865;53.114;9.130;2023-07-30T13:39:10;7.80;;;2.70;;
5684;SDS011;2865;53.114;9.130;2023-07-30T13:41:36;4.60;;;2.33;;
5684;SDS011;2865;53.114;9.130;2023-07-30T13:44:01;3.47;;;2.70;;
5684;SDS011;2865;53.114;9.130;2023-07-30T13:46:27;4.03;;;2.80;;
5684;SDS011;2865;53.114;9.130;2023-07-30T13:48:52;7.73;;;2.30;;
5684;SDS011;2865;53.114;9.130;2023-07-30T13:51:18;4.13;;;2.40;;
5684;SDS011;2865;53.114;9.130;2023-07-30T13:53:43;9.20;;;2.40;;
5684;SDS011;2865;53.114;9.130;2023-07-30T13:56:09;2.13;;;1.93;;
5684;SDS011;2865;53.114;9.130;2023-07-30T13:58:34;3.93;;;2.30;;
5684;SDS011;2865;53.114;9.130;2023-07-30T14:00:59;3.00;;;1.70;;
5684;SDS011;2865;53.114;9.130;2023-07-30T14:03:25;3.03;;;2.10;;
5684;SDS011;2865;53.114;9.130;2023-07-30T14:05:50;4.67;;;2.37;;
5684;SDS011;2865;53.114;9.130;2023-07-30T14:08:15;10.10;;;3.50;;
5684;SDS011;2865;53.114;9.130;2023-07-30T14:10:41;5.00;;;2.60;;
5684;SDS011;2865;53.114;9.130;2023-07-30T14:13:07;5.10;;;2.43;;
5684;SDS011;2865;53.114;9.130;2023-07-30T14:15:32;3.40;;;1.83;;
5684;SDS011;2865;53.114;9.130;2023-07-30T14:17:57;5.00;;;2.60;;
5684;SDS011;2865;53.114;9.130;2023-07-30T14:20:23;2.70;;;1.93;;
5684;SDS011;2865;53.114;9.130;2023-07-30T14:22:48;4.53;;;2.30;;
5684;SDS011;2865;53.114;9.130;2023-07-30T14:25:13;3.27;;;2.23;;
5684;SDS011;2865;53.114;9.130;2023-07-30T14:27:39;5.80;;;2.63;;
5684;SDS011;2865;53.114;9.130;2023-07-30T14:30:05;5.87;;;1.60;;
5684;SDS011;2865;53.114;9.130;2023-07-30T14:32:31;4.10;;;2.10;;
5684;SDS011;2865;53.114;9.130;2023-07-30T14:34:56;5.10;;;2.00;;
5684;SDS011;2865;53.114;9.130;2023-07-30T14:37:22;10.90;;;2.43;;
5684;SDS011;2865;53.114;9.130;2023-07-30T14:39:47;7.00;;;2.20;;
5684;SDS011;2865;53.114;9.130;2023-07-30T14:42:12;4.77;;;2.63;;
5684;SDS011;2865;53.114;9.130;2023-07-30T14:44:39;8.63;;;2.50;;
5684;SDS011;2865;53.114;9.130;2023-07-30T14:47:04;5.13;;;2.13;;
5684;SDS011;2865;53.114;9.130;2023-07-30T14:49:30;3.70;;;2.03;;
5684;SDS011;2865;53.114;9.130;2023-07-30T14:51:55;7.33;;;2.37;;
5684;SDS011;2865;53.114;9.130;2023-07-30T14:54:20;10.43;;;2.87;;
5684;SDS011;2865;53.114;9.130;2023-07-30T14:56:46;5.00;;;2.80;;
5684;SDS011;2865;53.114;9.130;2023-07-30T14:59:11;4.63;;;2.30;;
5684;SDS011;2865;53.114;9.130;2023-07-30T15:01:37;8.83;;;2.50;;
5684;SDS011;2865;53.114;9.130;2023-07-30T15:04:02;7.40;;;2.20;;
5684;SDS011;2865;53.114;9.130;2023-07-30T15:06:28;5.07;;;3.67;;
5684;SDS011;2865;53.114;9.130;2023-07-30T15:08:53;8.23;;;2.60;;
5684;SDS011;2865;53.114;9.130;2023-07-30T15:11:19;2.00;;;1.60;;
5684;SDS011;2865;53.114;9.130;2023-07-30T15:13:44;6.33;;;1.47;;